sensor_id;sensor_type;location;lat;lon;timestamp;pressure;altitude;pressure_sealevel;temperature;humidity
22647;BME280;11490;42.726;23.268;2023-08-06T00:50:14;94104.47;;;21.43;100.00
22647;BME280;11490;42.726;23.268;2023-08-06T00:52:41;94112.47;;;21.19;100.00
22647;BME280;11490;42.726;23.268;2023-08-06T00:55:07;94094.63;;;21.18;100.00
22647;BME280;11490;42.726;23.268;2023-08-06T00:57:32;94085.03;;;21.20;100.00
22647;BME280;11490;42.726;23.268;2023-08-06T00:59:58;94078.13;;;20.81;100.00
22647;BME280;11490;42.726;23.268;2023-08-06T01:02:23;94076.91;;;20.70;100.00
22647;BME280;11490;42.726;23.268;2023-08-06T01:04:49;94085.66;;;20.96;100.00
22647;BME280;11490;42.726;23.268;2023-08-06T01:07:25;94071.25;;;21.04;100.00
22647;BME280;11490;42.726;23.268;2023-08-06T01:12:59;94058.44;;;21.13;100.00
22647;BME280;11490;42.726;23.268;2023-08-06T01:15:29;94051.59;;;21.07;100.00
22647;BME280;11490;42.726;23.268;2023-08-06T01:17:57;94053.25;;;21.00;100.00
22647;BME280;11490;42.726;23.268;2023-08-06T01:20:28;94056.28;;;20.98;100.00
22647;BME280;11490;42.726;23.268;2023-08-06T01:22:53;94046.13;;;20.95;100.00
22647;BME280;11490;42.726;23.268;2023-08-06T01:25:19;94065.00;;;20.83;100.00
22647;BME280;11490;42.726;23.268;2023-08-06T01:27:48;94048.63;;;20.59;100.00
22647;BME280;11490;42.726;23.268;2023-08-06T01:30:20;94062.50;;;20.78;100.00
22647;BME280;11490;42.726;23.268;2023-08-06T01:32:50;94061.88;;;20.81;100.00
22647;BME280;11490;42.726;23.268;2023-08-06T01:35:19;94035.47;;;20.69;100.00
22647;BME280;11490;42.726;23.268;2023-08-06T01:37:45;94036.47;;;20.65;100.00
22647;BME280;11490;42.726;23.268;2023-08-06T01:40:12;94027.50;;;20.73;100.00
22647;BME280;11490;42.726;23.268;2023-08-06T01:42:38;94035.16;;;20.71;100.00
22647;BME280;11490;42.726;23.268;2023-08-06T01:45:05;94041.78;;;20.53;100.00
22647;BME280;11490;42.726;23.268;2023-08-06T01:47:31;94033.44;;;20.66;100.00
22647;BME280;11490;42.726;23.268;2023-08-06T01:49:56;94047.19;;;20.82;100.00
22647;BME280;11490;42.726;23.268;2023-08-06T01:52:21;94037.16;;;20.83;100.00
22647;BME280;11490;42.726;23.268;2023-08-06T01:54:47;94029.06;;;20.74;100.00
22647;BME280;11490;42.726;23.268;2023-08-06T01:57:12;94039.81;;;20.62;100.00
22647;BME280;11490;42.726;23.268;2023-08-06T01:59:37;94044.72;;;20.68;100.00
22647;BME280;11490;42.726;23.268;2023-08-06T02:02:03;94014.94;;;20.89;100.00
22647;BME280;11490;42.726;23.268;2023-08-06T02:04:28;94015.19;;;20.96;100.00
22647;BME280;11490;42.726;23.268;2023-08-06T02:06:54;94013.88;;;20.82;100.00
22647;BME280;11490;42.726;23.268;2023-08-06T02:09:19;94023.66;;;20.95;100.00
22647;BME280;11490;42.726;23.268;2023-08-06T02:11:45;94021.00;;;20.86;100.00
22647;BME280;11490;42.726;23.268;2023-08-06T02:14:10;94010.44;;;20.72;100.00
22647;BME280;11490;42.726;23.268;2023-08-06T02:16:35;94010.44;;;20.52;100.00
22647;BME280;11490;42.726;23.268;2023-08-06T02:19:01;94007.03;;;20.75;100.00
22647;BME280;11490;42.726;23.268;2023-08-06T02:21:26;94019.03;;;20.74;100.00
22647;BME280;11490;42.726;23.268;2023-08-06T02:23:52;94026.47;;;20.57;100.00
22647;BME280;11490;42.726;23.268;2023-08-06T02:26:17;94051.59;;;20.36;100.00
22647;BME280;11490;42.726;23.268;2023-08-06T02:28:42;94044.31;;;20.28;100.00
22647;BME280;11490;42.726;23.268;2023-08-06T03:54:28;94048.63;;;20.59;100.00
22647;BME280;11490;42.726;23.268;2023-08-06T03:56:54;94048.13;;;20.27;100.00
22647;BME280;11490;42.726;23.268;2023-08-06T03:59:19;94045.59;;;20.22;100.00
22647;BME280;11490;42.726;23.268;2023-08-06T04:01:44;94048.50;;;20.17;100.00
22647;BME280;11490;42.726;23.268;2023-08-06T04:04:10;94052.53;;;20.41;100.00
22647;BME280;11490;42.726;23.268;2023-08-06T04:06:35;94049.19;;;20.44;100.00
22647;BME280;11490;42.726;23.268;2023-08-06T04:09:01;94052.44;;;20.58;100.00
22647;BME280;11490;42.726;23.268;2023-08-06T04:11:26;94047.84;;;20.79;100.00
22647;BME280;11490;42.726;23.268;2023-08-06T04:13:51;94059.47;;;20.80;100.00
22647;BME280;11490;42.726;23.268;2023-08-06T04:16:17;94077.72;;;20.91;100.00
22647;BME280;11490;42.726;23.268;2023-08-06T04:18:42;94070.19;;;20.97;100.00
22647;BME280;11490;42.726;23.268;2023-08-06T04:21:08;94072.28;;;20.91;100.00
22647;BME280;11490;42.726;23.268;2023-08-06T04:23:33;94070.84;;;21.14;100.00
22647;BME280;11490;42.726;23.268;2023-08-06T04:25:58;94054.47;;;20.90;100.00
22647;BME280;11490;42.726;23.268;2023-08-06T04:28:24;94058.88;;;20.95;100.00
22647;BME280;11490;42.726;23.268;2023-08-06T04:30:50;94045.72;;;20.64;100.00
22647;BME280;11490;42.726;23.268;2023-08-06T04:33:15;94032.09;;;20.72;100.00
22647;BME280;11490;42.726;23.268;2023-08-06T04:35:41;94037.38;;;20.69;100.00
22647;BME280;11490;42.726;23.268;2023-08-06T04:38:06;94041.88;;;20.86;100.00
22647;BME280;11490;42.726;23.268;2023-08-06T04:40:35;94038.97;;;20.91;100.00
22647;BME280;11490;42.726;23.268;2023-08-06T04:43:01;94037.25;;;20.86;100.00
22647;BME280;11490;42.726;23.268;2023-08-06T04:45:27;94017.44;;;20.94;100.00
22647;BME280;11490;42.726;23.268;2023-08-06T04:47:52;93994.00;;;21.10;100.00
22647;BME280;11490;42.726;23.268;2023-08-06T04:50:20;93981.88;;;20.75;100.00
22647;BME280;11490;42.726;23.268;2023-08-06T04:52:45;93985.56;;;20.91;100.00
22647;BME280;11490;42.726;23.268;2023-08-06T04:55:10;93985.56;;;20.91;100.00
22647;BME280;11490;42.726;23.268;2023-08-06T04:57:36;93974.38;;;20.93;100.00
22647;BME280;11490;42.726;23.268;2023-08-06T05:00:01;93991.63;;;21.09;100.00
22647;BME280;11490;42.726;23.268;2023-08-06T05:02:27;93965.47;;;20.92;100.00
22647;BME280;11490;42.726;23.268;2023-08-06T05:04:53;93978.03;;;21.18;100.00
22647;BME280;11490;42.726;23.268;2023-08-06T05:07:18;93987.28;;;20.96;100.00
22647;BME280;11490;42.726;23.268;2023-08-06T05:09:43;93984.75;;;21.11;100.00
22647;BME280;11490;42.726;23.268;2023-08-06T05:12:09;93962.03;;;21.04;100.00
22647;BME280;11490;42.726;23.268;2023-08-06T05:14:34;93967.06;;;20.93;100.00
22647;BME280;11490;42.726;23.268;2023-08-06T05:17:00;93986.41;;;21.25;100.00
22647;BME280;11490;42.726;23.268;2023-08-06T05:19:27;93982.09;;;21.24;100.00
22647;BME280;11490;42.726;23.268;2023-08-06T05:21:52;93986.19;;;21.09;100.00
22647;BME280;11490;42.726;23.268;2023-08-06T05:24:18;93990.97;;;20.91;100.00
22647;BME280;11490;42.726;23.268;2023-08-06T05:26:43;93989.28;;;20.87;100.00
22647;BME280;11490;42.726;23.268;2023-08-06T05:29:11;93993.41;;;21.26;100.00
22647;BME280;11490;42.726;23.268;2023-08-06T05:31:37;93987.34;;;21.41;100.00
22647;BME280;11490;42.726;23.268;2023-08-06T05:34:02;93988.47;;;21.28;100.00
22647;BME280;11490;42.726;23.268;2023-08-06T05:36:28;93994.66;;;21.07;100.00
22647;BME280;11490;42.726;23.268;2023-08-06T05:38:53;93987.13;;;21.34;100.00
22647;BME280;11490;42.726;23.268;2023-08-06T05:41:19;93989.22;;;21.61;100.00
22647;BME280;11490;42.726;23.268;2023-08-06T05:43:45;93978.81;;;21.63;100.00
22647;BME280;11490;42.726;23.268;2023-08-06T05:46:10;93989.25;;;21.73;100.00
22647;BME280;11490;42.726;23.268;2023-08-06T05:48:35;93980.03;;;21.99;100.00
22647;BME280;11490;42.726;23.268;2023-08-06T05:51:01;93988.84;;;22.08;100.00
22647;BME280;11490;42.726;23.268;2023-08-06T05:53:26;93993.38;;;22.28;100.00
22647;BME280;11490;42.726;23.268;2023-08-06T05:55:52;93999.38;;;22.21;100.00
22647;BME280;11490;42.726;23.268;2023-08-06T05:58:17;94008.09;;;22.27;100.00
22647;BME280;11490;42.726;23.268;2023-08-06T06:00:43;94018.94;;;22.51;100.00
22647;BME280;11490;42.726;23.268;2023-08-06T06:03:08;94020.97;;;22.67;100.00
22647;BME280;11490;42.726;23.268;2023-08-06T06:05:34;94028.66;;;22.64;100.00
22647;BME280;11490;42.726;23.268;2023-08-06T06:07:59;94026.41;;;22.42;100.00
22647;BME280;11490;42.726;23.268;2023-08-06T06:10:25;94021.75;;;22.55;100.00
22647;BME280;11490;42.726;23.268;2023-08-06T06:12:50;94032.06;;;22.49;100.00
22647;BME280;11490;42.726;23.268;2023-08-06T06:15:15;94039.19;;;22.54;100.00
22647;BME280;11490;42.726;23.268;2023-08-06T06:17:41;94039.75;;;22.72;100.00
22647;BME280;11490;42.726;23.268;2023-08-06T06:20:07;94042.25;;;22.64;100.00
22647;BME280;11490;42.726;23.268;2023-08-06T06:22:32;94052.88;;;22.70;100.00
22647;BME280;11490;42.726;23.268;2023-08-06T06:24:57;94069.19;;;22.94;100.00
22647;BME280;11490;42.726;23.268;2023-08-06T06:27:23;94073.06;;;22.81;98.48
22647;BME280;11490;42.726;23.268;2023-08-06T06:29:48;94076.88;;;22.92;100.00
22647;BME280;11490;42.726;23.268;2023-08-06T06:32:14;94075.31;;;22.91;96.14
22647;BME280;11490;42.726;23.268;2023-08-06T06:34:39;94079.56;;;23.16;97.93
22647;BME280;11490;42.726;23.268;2023-08-06T06:37:04;94083.84;;;23.17;96.63
22647;BME280;11490;42.726;23.268;2023-08-06T06:39:30;94072.31;;;23.20;98.76
22647;BME280;11490;42.726;23.268;2023-08-06T06:41:55;94087.34;;;23.30;96.38
22647;BME280;11490;42.726;23.268;2023-08-06T06:44:21;94097.81;;;23.16;97.53
22647;BME280;11490;42.726;23.268;2023-08-06T06:46:46;94100.78;;;23.11;98.05
22647;BME280;11490;42.726;23.268;2023-08-06T06:49:12;94094.78;;;23.05;97.12
22647;BME280;11490;42.726;23.268;2023-08-06T06:51:37;94098.22;;;22.90;94.92
22647;BME280;11490;42.726;23.268;2023-08-06T06:54:03;94102.94;;;22.93;94.28
22647;BME280;11490;42.726;23.268;2023-08-06T06:56:28;94097.53;;;22.81;93.27
22647;BME280;11490;42.726;23.268;2023-08-06T06:58:53;94103.84;;;22.85;91.42
22647;BME280;11490;42.726;23.268;2023-08-06T07:01:19;94106.81;;;22.80;91.87
22647;BME280;11490;42.726;23.268;2023-08-06T07:03:44;94121.09;;;22.89;91.33
22647;BME280;11490;42.726;23.268;2023-08-06T07:06:10;94123.09;;;22.92;92.75
22647;BME280;11490;42.726;23.268;2023-08-06T07:08:36;94114.75;;;22.97;94.52
22647;BME280;11490;42.726;23.268;2023-08-06T07:11:02;94113.31;;;23.15;95.83
22647;BME280;11490;42.726;23.268;2023-08-06T07:13:28;94130.78;;;23.26;95.29
22647;BME280;11490;42.726;23.268;2023-08-06T07:15:54;94136.03;;;23.47;91.41
22647;BME280;11490;42.726;23.268;2023-08-06T07:18:20;94127.78;;;23.44;92.52
22647;BME280;11490;42.726;23.268;2023-08-06T07:20:53;94132.28;;;23.64;91.39
22647;BME280;11490;42.726;23.268;2023-08-06T07:23:23;94121.03;;;23.93;91.27
22647;BME280;11490;42.726;23.268;2023-08-06T07:25:49;94134.13;;;23.88;88.05
22647;BME280;11490;42.726;23.268;2023-08-06T07:28:15;94138.88;;;23.91;87.22
22647;BME280;11490;42.726;23.268;2023-08-06T07:30:42;94140.72;;;24.02;89.51
22647;BME280;11490;42.726;23.268;2023-08-06T07:33:08;94136.78;;;24.28;90.49
22647;BME280;11490;42.726;23.268;2023-08-06T07:35:35;94139.34;;;24.36;87.52
22647;BME280;11490;42.726;23.268;2023-08-06T07:38:01;94141.00;;;24.41;86.20
22647;BME280;11490;42.726;23.268;2023-08-06T07:40:27;94131.78;;;24.61;84.51
22647;BME280;11490;42.726;23.268;2023-08-06T07:42:53;94133.25;;;24.90;84.58
22647;BME280;11490;42.726;23.268;2023-08-06T07:45:18;94135.38;;;24.97;83.30
22647;BME280;11490;42.726;23.268;2023-08-06T07:47:44;94130.63;;;24.93;82.14
22647;BME280;11490;42.726;23.268;2023-08-06T07:50:09;94134.06;;;24.75;82.78
22647;BME280;11490;42.726;23.268;2023-08-06T07:52:41;94135.13;;;24.39;82.67
22647;BME280;11490;42.726;23.268;2023-08-06T07:55:06;94141.72;;;24.38;83.61
22647;BME280;11490;42.726;23.268;2023-08-06T07:57:32;94133.38;;;24.46;84.36
22647;BME280;11490;42.726;23.268;2023-08-06T07:59:58;94120.25;;;24.52;84.03
22647;BME280;11490;42.726;23.268;2023-08-06T08:02:24;94119.53;;;24.86;81.83
22647;BME280;11490;42.726;23.268;2023-08-06T08:04:49;94136.44;;;25.08;81.01
22647;BME280;11490;42.726;23.268;2023-08-06T08:07:15;94126.56;;;24.87;77.83
22647;BME280;11490;42.726;23.268;2023-08-06T08:09:40;94118.16;;;24.92;77.95
22647;BME280;11490;42.726;23.268;2023-08-06T08:12:06;94113.44;;;25.09;80.96
22647;BME280;11490;42.726;23.268;2023-08-06T08:14:31;94118.78;;;25.21;78.01
22647;BME280;11490;42.726;23.268;2023-08-06T08:17:03;94130.03;;;24.84;80.88
22647;BME280;11490;42.726;23.268;2023-08-06T08:19:30;94115.16;;;24.98;77.69
22647;BME280;11490;42.726;23.268;2023-08-06T08:21:55;94122.50;;;25.13;81.17
22647;BME280;11490;42.726;23.268;2023-08-06T08:24:21;94108.53;;;25.68;79.47
22647;BME280;11490;42.726;23.268;2023-08-06T08:26:52;94127.06;;;25.98;76.59
22647;BME280;11490;42.726;23.268;2023-08-06T08:29:19;94115.81;;;26.03;74.26
22647;BME280;11490;42.726;23.268;2023-08-06T08:31:45;94121.63;;;26.21;75.11
22647;BME280;11490;42.726;23.268;2023-08-06T08:34:10;94125.00;;;26.33;72.86
22647;BME280;11490;42.726;23.268;2023-08-06T08:36:36;94134.50;;;26.39;73.44
22647;BME280;11490;42.726;23.268;2023-08-06T08:39:02;94123.88;;;26.15;72.33
22647;BME280;11490;42.726;23.268;2023-08-06T08:41:31;94114.56;;;26.20;74.37
22647;BME280;11490;42.726;23.268;2023-08-06T08:43:58;94123.06;;;26.57;70.80
22647;BME280;11490;42.726;23.268;2023-08-06T08:46:27;94113.69;;;26.58;70.19
22647;BME280;11490;42.726;23.268;2023-08-06T08:48:55;94122.56;;;26.74;71.84
22647;BME280;11490;42.726;23.268;2023-08-06T08:51:23;94113.56;;;26.96;73.48
22647;BME280;11490;42.726;23.268;2023-08-06T08:53:49;94105.97;;;26.86;70.46
22647;BME280;11490;42.726;23.268;2023-08-06T08:56:18;94103.47;;;27.00;73.41
22647;BME280;11490;42.726;23.268;2023-08-06T08:58:44;94106.00;;;27.12;71.26
22647;BME280;11490;42.726;23.268;2023-08-06T09:01:10;94104.09;;;26.90;67.81
22647;BME280;11490;42.726;23.268;2023-08-06T09:03:36;94105.06;;;27.01;68.71
22647;BME280;11490;42.726;23.268;2023-08-06T09:06:02;94094.16;;;27.05;70.03
22647;BME280;11490;42.726;23.268;2023-08-06T09:08:34;94094.63;;;27.10;69.75
22647;BME280;11490;42.726;23.268;2023-08-06T09:11:02;94097.00;;;27.42;72.35
22647;BME280;11490;42.726;23.268;2023-08-06T09:13:29;94090.34;;;27.69;65.85
22647;BME280;11490;42.726;23.268;2023-08-06T09:15:55;94088.50;;;27.47;64.86
22647;BME280;11490;42.726;23.268;2023-08-06T09:21:28;94069.94;;;27.33;68.87
22647;BME280;11490;42.726;23.268;2023-08-06T09:23:58;94070.91;;;27.81;65.34
22647;BME280;11490;42.726;23.268;2023-08-06T09:26:45;94089.44;;;28.25;66.12
22647;BME280;11490;42.726;23.268;2023-08-06T09:29:11;94065.75;;;28.10;63.60
22647;BME280;11490;42.726;23.268;2023-08-06T09:31:50;94054.91;;;28.17;67.17
22647;BME280;11490;42.726;23.268;2023-08-06T09:34:20;94084.31;;;28.64;62.01
22647;BME280;11490;42.726;23.268;2023-08-06T09:36:49;94085.16;;;28.71;60.19
22647;BME280;11490;42.726;23.268;2023-08-06T09:39:27;94078.72;;;28.53;59.58
22647;BME280;11490;42.726;23.268;2023-08-06T09:42:00;94043.22;;;28.27;59.31
22647;BME280;11490;42.726;23.268;2023-08-06T09:44:31;94045.28;;;28.37;62.92
22647;BME280;11490;42.726;23.268;2023-08-06T09:47:00;94050.28;;;28.28;58.89
22647;BME280;11490;42.726;23.268;2023-08-06T09:49:46;94042.53;;;28.37;58.55
22647;BME280;11490;42.726;23.268;2023-08-06T09:52:12;94045.16;;;28.23;59.14
22647;BME280;11490;42.726;23.268;2023-08-06T09:54:38;94052.88;;;28.14;62.04
22647;BME280;11490;42.726;23.268;2023-08-06T09:57:05;94042.25;;;28.09;60.83
22647;BME280;11490;42.726;23.268;2023-08-06T09:59:44;94044.28;;;27.78;60.91
22647;BME280;11490;42.726;23.268;2023-08-06T10:02:13;94071.75;;;28.63;61.13
22647;BME280;11490;42.726;23.268;2023-08-06T10:04:39;94043.84;;;28.54;56.82
22647;BME280;11490;42.726;23.268;2023-08-06T10:07:08;94049.44;;;28.20;59.20
22647;BME280;11490;42.726;23.268;2023-08-06T10:09:33;94070.19;;;28.65;60.14
22647;BME280;11490;42.726;23.268;2023-08-06T10:11:59;94061.41;;;28.46;58.66
22647;BME280;11490;42.726;23.268;2023-08-06T10:14:27;94086.31;;;28.70;61.77
22647;BME280;11490;42.726;23.268;2023-08-06T10:16:54;94077.16;;;28.52;57.36
22647;BME280;11490;42.726;23.268;2023-08-06T10:19:22;94073.00;;;28.25;61.49
22647;BME280;11490;42.726;23.268;2023-08-06T10:22:08;94080.28;;;28.14;61.16
22647;BME280;11490;42.726;23.268;2023-08-06T10:27:11;94074.56;;;27.59;62.67
22647;BME280;11490;42.726;23.268;2023-08-06T10:29:37;94087.63;;;28.03;63.17
22647;BME280;11490;42.726;23.268;2023-08-06T10:32:03;94083.69;;;28.04;59.78
22647;BME280;11490;42.726;23.268;2023-08-06T10:34:58;94093.31;;;27.57;63.80
22647;BME280;11490;42.726;23.268;2023-08-06T10:37:25;94093.63;;;27.82;60.24
22647;BME280;11490;42.726;23.268;2023-08-06T10:39:59;94099.66;;;27.61;62.53
22647;BME280;11490;42.726;23.268;2023-08-06T10:42:29;94103.47;;;27.00;63.49
22647;BME280;11490;42.726;23.268;2023-08-06T10:45:20;94101.13;;;26.76;64.81
22647;BME280;11490;42.726;23.268;2023-08-06T10:47:46;94074.91;;;26.75;63.39
22647;BME280;11490;42.726;23.268;2023-08-06T10:50:14;94080.81;;;26.77;62.54
22647;BME280;11490;42.726;23.268;2023-08-06T10:52:42;94102.44;;;26.86;63.60
22647;BME280;11490;42.726;23.268;2023-08-06T10:55:08;94093.34;;;26.78;64.18
22647;BME280;11490;42.726;23.268;2023-08-06T10:57:44;94110.72;;;26.66;60.92
22647;BME280;11490;42.726;23.268;2023-08-06T11:00:12;94095.22;;;26.28;61.25
22647;BME280;11490;42.726;23.268;2023-08-06T11:02:39;94111.34;;;26.14;65.62
22647;BME280;11490;42.726;23.268;2023-08-06T11:05:08;94140.13;;;25.89;75.95
22647;BME280;11490;42.726;23.268;2023-08-06T11:07:35;94136.38;;;25.39;82.27
22647;BME280;11490;42.726;23.268;2023-08-06T11:10:06;94124.63;;;25.04;85.16
22647;BME280;11490;42.726;23.268;2023-08-06T11:12:32;94130.28;;;24.79;86.22
22647;BME280;11490;42.726;23.268;2023-08-06T11:14:58;94122.44;;;24.78;89.79
22647;BME280;11490;42.726;23.268;2023-08-06T11:17:24;94103.13;;;24.36;92.11
22647;BME280;11490;42.726;23.268;2023-08-06T11:19:50;94125.72;;;24.52;92.38
22647;BME280;11490;42.726;23.268;2023-08-06T11:22:16;94121.13;;;24.56;90.87
22647;BME280;11490;42.726;23.268;2023-08-06T11:24:41;94120.59;;;24.66;90.99
22647;BME280;11490;42.726;23.268;2023-08-06T11:27:13;94104.34;;;24.54;91.09
22647;BME280;11490;42.726;23.268;2023-08-06T11:29:40;94113.56;;;24.65;87.30
22647;BME280;11490;42.726;23.268;2023-08-06T11:32:06;94112.59;;;24.73;87.79
22647;BME280;11490;42.726;23.268;2023-08-06T11:34:32;94120.69;;;24.85;87.69
22647;BME280;11490;42.726;23.268;2023-08-06T11:36:57;94086.78;;;24.86;88.94
22647;BME280;11490;42.726;23.268;2023-08-06T11:39:23;94103.84;;;25.15;86.82
22647;BME280;11490;42.726;23.268;2023-08-06T11:41:49;94090.16;;;25.30;84.24
22647;BME280;11490;42.726;23.268;2023-08-06T11:44:15;94108.22;;;25.74;82.39
22647;BME280;11490;42.726;23.268;2023-08-06T11:46:53;94098.41;;;26.30;79.53
22647;BME280;11490;42.726;23.268;2023-08-06T11:52:20;94074.25;;;26.59;69.06
22647;BME280;11490;42.726;23.268;2023-08-06T11:54:47;94100.25;;;26.95;74.49
22647;BME280;11490;42.726;23.268;2023-08-06T11:57:14;94094.31;;;27.15;70.16
22647;BME280;11490;42.726;23.268;2023-08-06T11:59:40;94076.31;;;27.14;58.57
22647;BME280;11490;42.726;23.268;2023-08-06T12:02:08;94063.59;;;26.99;65.83
22647;BME280;11490;42.726;23.268;2023-08-06T12:05:00;94099.19;;;27.03;63.95
22647;BME280;11490;42.726;23.268;2023-08-06T12:07:29;94087.34;;;26.95;66.98
22647;BME280;11490;42.726;23.268;2023-08-06T12:09:56;94086.72;;;26.79;67.82
22647;BME280;11490;42.726;23.268;2023-08-06T12:12:22;94075.00;;;26.56;65.62
22647;BME280;11490;42.726;23.268;2023-08-06T12:14:48;94074.94;;;26.29;64.73
22647;BME280;11490;42.726;23.268;2023-08-06T12:17:13;94083.06;;;26.26;65.30
22647;BME280;11490;42.726;23.268;2023-08-06T12:19:39;94053.41;;;26.05;66.05
22647;BME280;11490;42.726;23.268;2023-08-06T12:22:04;94057.28;;;26.04;64.53
22647;BME280;11490;42.726;23.268;2023-08-06T12:24:29;94077.75;;;26.56;66.70
22647;BME280;11490;42.726;23.268;2023-08-06T12:26:59;94085.44;;;26.50;63.61
22647;BME280;11490;42.726;23.268;2023-08-06T12:29:27;94086.59;;;26.49;63.65
22647;BME280;11490;42.726;23.268;2023-08-06T12:31:53;94077.13;;;26.43;59.93
22647;BME280;11490;42.726;23.268;2023-08-06T12:34:19;94080.41;;;26.29;63.21
22647;BME280;11490;42.726;23.268;2023-08-06T12:36:44;94081.06;;;26.23;63.63
22647;BME280;11490;42.726;23.268;2023-08-06T12:39:09;94078.44;;;26.07;62.31
22647;BME280;11490;42.726;23.268;2023-08-06T12:41:35;94086.06;;;25.98;61.92
22647;BME280;11490;42.726;23.268;2023-08-06T12:44:01;94083.91;;;26.07;66.12
22647;BME280;11490;42.726;23.268;2023-08-06T12:46:26;94077.69;;;26.10;69.17
22647;BME280;11490;42.726;23.268;2023-08-06T12:48:52;94084.72;;;26.11;63.03
22647;BME280;11490;42.726;23.268;2023-08-06T12:51:17;94073.56;;;25.97;66.60
22647;BME280;11490;42.726;23.268;2023-08-06T12:53:43;94065.66;;;25.92;66.94
22647;BME280;11490;42.726;23.268;2023-08-06T12:56:08;94071.00;;;25.85;66.77
22647;BME280;11490;42.726;23.268;2023-08-06T12:58:34;94081.53;;;26.05;64.01
22647;BME280;11490;42.726;23.268;2023-08-06T13:00:59;94082.38;;;26.10;63.68
22647;BME280;11490;42.726;23.268;2023-08-06T13:03:25;94081.59;;;26.09;62.72
22647;BME280;11490;42.726;23.268;2023-08-06T13:05:50;94082.06;;;25.92;63.04
22647;BME280;11490;42.726;23.268;2023-08-06T13:08:17;94051.56;;;25.51;64.68
22647;BME280;11490;42.726;23.268;2023-08-06T13:10:42;94075.19;;;25.59;64.07
22647;BME280;11490;42.726;23.268;2023-08-06T13:13:08;94067.41;;;25.61;63.86
22647;BME280;11490;42.726;23.268;2023-08-06T13:15:35;94074.44;;;25.82;66.85
22647;BME280;11490;42.726;23.268;2023-08-06T13:18:01;94083.56;;;25.89;66.14
22647;BME280;11490;42.726;23.268;2023-08-06T13:20:32;94080.25;;;25.80;63.25
22647;BME280;11490;42.726;23.268;2023-08-06T13:23:02;94075.19;;;25.59;62.87
22647;BME280;11490;42.726;23.268;2023-08-06T13:25:28;94087.81;;;25.67;65.13
22647;BME280;11490;42.726;23.268;2023-08-06T13:27:54;94090.78;;;25.78;66.56
22647;BME280;11490;42.726;23.268;2023-08-06T13:30:20;94081.88;;;25.62;66.42
22647;BME280;11490;42.726;23.268;2023-08-06T13:32:45;94103.63;;;25.78;64.27
22647;BME280;11490;42.726;23.268;2023-08-06T13:35:11;94077.56;;;25.61;64.15
22647;BME280;11490;42.726;23.268;2023-08-06T13:37:37;94077.38;;;25.54;62.92
22647;BME280;11490;42.726;23.268;2023-08-06T13:40:02;94071.00;;;25.46;63.76
22647;BME280;11490;42.726;23.268;2023-08-06T13:42:28;94082.22;;;25.60;64.78
22647;BME280;11490;42.726;23.268;2023-08-06T13:44:56;94075.53;;;25.77;66.08
22647;BME280;11490;42.726;23.268;2023-08-06T13:47:28;94069.09;;;26.08;66.28
22647;BME280;11490;42.726;23.268;2023-08-06T13:49:54;94096.09;;;26.32;62.79
22647;BME280;11490;42.726;23.268;2023-08-06T13:52:20;94082.00;;;26.30;61.81
22647;BME280;11490;42.726;23.268;2023-08-06T13:54:46;94073.47;;;26.35;61.77
22647;BME280;11490;42.726;23.268;2023-08-06T13:57:11;94085.09;;;26.52;61.57
22647;BME280;11490;42.726;23.268;2023-08-06T13:59:37;94069.84;;;26.51;60.96
22647;BME280;11490;42.726;23.268;2023-08-06T14:02:03;94061.34;;;26.56;61.25
22647;BME280;11490;42.726;23.268;2023-08-06T14:04:28;94062.88;;;26.57;59.83
22647;BME280;11490;42.726;23.268;2023-08-06T14:06:54;94069.00;;;26.73;60.39
22647;BME280;11490;42.726;23.268;2023-08-06T14:09:19;94065.44;;;26.69;60.15
22647;BME280;11490;42.726;23.268;2023-08-06T14:11:45;94073.19;;;26.63;62.11
22647;BME280;11490;42.726;23.268;2023-08-06T14:14:11;94091.53;;;26.89;62.86
22647;BME280;11490;42.726;23.268;2023-08-06T14:16:36;94061.34;;;26.82;60.61
22647;BME280;11490;42.726;23.268;2023-08-06T14:19:02;94081.59;;;27.00;58.49
22647;BME280;11490;42.726;23.268;2023-08-06T14:21:28;94067.97;;;26.81;58.77
22647;BME280;11490;42.726;23.268;2023-08-06T14:23:53;94053.13;;;26.82;57.99
22647;BME280;11490;42.726;23.268;2023-08-06T14:26:19;94072.59;;;26.77;58.66
22647;BME280;11490;42.726;23.268;2023-08-06T14:28:44;94040.97;;;26.53;58.67
22647;BME280;11490;42.726;23.268;2023-08-06T14:31:10;94080.19;;;26.64;59.77
22647;BME280;11490;42.726;23.268;2023-08-06T14:33:36;94082.34;;;26.52;58.72
22647;BME280;11490;42.726;23.268;2023-08-06T14:36:01;94066.44;;;26.34;59.59
22647;BME280;11490;42.726;23.268;2023-08-06T14:38:27;94078.63;;;26.40;61.00
22647;BME280;11490;42.726;23.268;2023-08-06T14:40:52;94085.88;;;26.29;61.10
22647;BME280;11490;42.726;23.268;2023-08-06T14:43:18;94090.41;;;26.22;61.67
22647;BME280;11490;42.726;23.268;2023-08-06T14:45:45;94074.66;;;26.15;63.40
22647;BME280;11490;42.726;23.268;2023-08-06T14:48:10;94058.94;;;26.09;62.11
22647;BME280;11490;42.726;23.268;2023-08-06T14:50:35;94064.06;;;25.91;63.67
22647;BME280;11490;42.726;23.268;2023-08-06T14:53:02;94069.91;;;26.12;62.21
22647;BME280;11490;42.726;23.268;2023-08-06T14:55:28;94050.97;;;26.00;62.08
22647;BME280;11490;42.726;23.268;2023-08-06T14:57:53;94052.94;;;26.22;60.91
22647;BME280;11490;42.726;23.268;2023-08-06T15:00:19;94059.97;;;26.23;62.18
22647;BME280;11490;42.726;23.268;2023-08-06T15:02:46;94046.59;;;26.18;61.75
22647;BME280;11490;42.726;23.268;2023-08-06T15:05:11;94051.94;;;26.11;62.95
22647;BME280;11490;42.726;23.268;2023-08-06T15:07:37;94070.47;;;26.21;61.15
22647;BME280;11490;42.726;23.268;2023-08-06T15:10:04;94059.72;;;26.09;62.61